Time;durP1;ratioP1;P1;durP2;ratioP2;P2;SDS_P1;SDS_P2;PMS_P1;PMS_P2;Temp;Humidity;BMP_temperature;BMP_pressure;BME280_temperature;BME280_humidity;BME280_pressure;Samples;Min_cycle;Max_cycle;Signal;HPM_P1;HPM_P2
2020/05/06 00:02:08;;;;;;;5.1;4.6;;;;;;;;;;;;;
2020/05/06 00:04:33;;;;;;;7;5.4;;;;;;;;;;;;;
2020/05/06 00:06:58;;;;;;;6.5;4.9;;;;;;;;;;;;;
2020/05/06 00:09:24;;;;;;;4.8;4.2;;;;;;;;;;;;;
2020/05/06 00:11:49;;;;;;;6.6;5;;;;;;;;;;;;;
2020/05/06 00:14:14;;;;;;;5.1;4.6;;;;;;;;;;;;;
2020/05/06 00:16:39;;;;;;;6.7;5.3;;;;;;;;;;;;;
2020/05/06 00:19:04;;;;;;;7.4;5.2;;;;;;;;;;;;;
2020/05/06 00:21:29;;;;;;;7.4;5.2;;;;;;;;;;;;;
2020/05/06 00:23:55;;;;;;;6.2;5.1;;;;;;;;;;;;;
2020/05/06 00:26:20;;;;;;;7;5.3;;;;;;;;;;;;;
2020/05/06 00:28:45;;;;;;;5.8;5.2;;;;;;;;;;;;;
2020/05/06 00:31:11;;;;;;;5.7;5.1;;;;;;;;;;;;;
2020/05/06 00:33:36;;;;;;;5.6;5;;;;;;;;;;;;;
2020/05/06 00:36:02;;;;;;;6.6;5;;;;;;;;;;;;;
2020/05/06 00:38:27;;;;;;;6.3;4.9;;;;;;;;;;;;;
2020/05/06 00:40:53;;;;;;;6.7;5.3;;;;;;;;;;;;;
2020/05/06 00:43:18;;;;;;;8;5.5;;;;;;;;;;;;;
2020/05/06 00:45:44;;;;;;;7.8;5.4;;;;;;;;;;;;;
2020/05/06 00:48:09;;;;;;;6.6;5.4;;;;;;;;;;;;;
2020/05/06 00:50:36;;;;;;;5.8;5.2;;;;;;;;;;;;;
2020/05/06 00:53:01;;;;;;;7.2;5.1;;;;;;;;;;;;;
2020/05/06 00:55:26;;;;;;;6.5;5.2;;;;;;;;;;;;;
2020/05/06 00:57:51;;;;;;;7.2;5.5;;;;;;;;;;;;;
2020/05/06 01:00:16;;;;;;;9.2;5.5;;;;;;;;;;;;;
2020/05/06 01:02:42;;;;;;;6.6;5.3;;;;;;;;;;;;;
2020/05/06 01:05:07;;;;;;;7.2;5.6;;;;;;;;;;;;;
2020/05/06 01:07:32;;;;;;;7.4;5.6;;;;;;;;;;;;;
2020/05/06 01:09:57;;;;;;;8.4;6.4;;;;;;;;;;;;;
2020/05/06 01:12:23;;;;;;;6.6;5.7;;;;;;;;;;;;;
2020/05/06 01:14:48;;;;;;;6.6;5.7;;;;;;;;;;;;;
2020/05/06 01:17:14;;;;;;;8.5;6.3;;;;;;;;;;;;;
2020/05/06 01:19:39;;;;;;;7.9;5.9;;;;;;;;;;;;;
2020/05/06 01:22:05;;;;;;;9.3;6.1;;;;;;;;;;;;;
2020/05/06 01:24:30;;;;;;;6;5.4;;;;;;;;;;;;;
2020/05/06 01:26:55;;;;;;;7.2;5.6;;;;;;;;;;;;;
2020/05/06 01:29:20;;;;;;;7;6.3;;;;;;;;;;;;;
2020/05/06 01:31:46;;;;;;;8.4;6.6;;;;;;;;;;;;;
2020/05/06 01:34:11;;;;;;;9.6;7.2;;;;;;;;;;;;;
2020/05/06 01:36:36;;;;;;;8.8;7.3;;;;;;;;;;;;;
2020/05/06 01:39:01;;;;;;;9.6;7.6;;;;;;;;;;;;;
2020/05/06 01:41:27;;;;;;;10.6;7.9;;;;;;;;;;;;;
2020/05/06 01:43:52;;;;;;;10.3;9.2;;;;;;;;;;;;;
2020/05/06 01:46:18;;;;;;;10.8;9.3;;;;;;;;;;;;;
2020/05/06 01:48:43;;;;;;;11.5;9.3;;;;;;;;;;;;;
2020/05/06 01:51:08;;;;;;;11.6;9.7;;;;;;;;;;;;;
2020/05/06 01:53:36;;;;;;;10.9;9.8;;;;;;;;;;;;;
2020/05/06 01:56:16;;;;;;;11.5;10.3;;;;;;;;;;;;;
2020/05/06 01:58:42;;;;;;;13.1;10.4;;;;;;;;;;;;;
2020/05/06 02:01:17;;;;;;;12.9;11.4;;;;;;;;;;;;;
2020/05/06 02:03:18;;;;;;;13;11.7;;;;;;;;;;;;;
2020/05/06 02:08:10;;;;;;;13.3;12;;;;;;;;;;;;;
2020/05/06 02:10:32;;;;;;;13.3;11.9;;;;;;;;;;;;;
2020/05/06 02:15:27;;;;;;;14.7;13.2;;;;;;;;;;;;;
2020/05/06 02:17:48;;;;;;;14.9;13.4;;;;;;;;;;;;;
2020/05/06 02:20:31;;;;;;;14.6;13.2;;;;;;;;;;;;;
2020/05/06 02:22:38;;;;;;;15;13.5;;;;;;;;;;;;;
2020/05/06 02:25:03;;;;;;;15;13.5;;;;;;;;;;;;;
2020/05/06 02:27:28;;;;;;;15.3;13.8;;;;;;;;;;;;;
2020/05/06 02:29:53;;;;;;;16;14.4;;;;;;;;;;;;;
2020/05/06 02:32:18;;;;;;;16;14.3;;;;;;;;;;;;;
2020/05/06 02:34:43;;;;;;;16.3;14.6;;;;;;;;;;;;;
2020/05/06 02:37:09;;;;;;;17.1;15.4;;;;;;;;;;;;;
2020/05/06 02:39:34;;;;;;;16.9;15.2;;;;;;;;;;;;;
2020/05/06 02:41:59;;;;;;;16.4;14.7;;;;;;;;;;;;;
2020/05/06 02:44:26;;;;;;;15.9;14.3;;;;;;;;;;;;;
2020/05/06 02:47:08;;;;;;;15.8;14.3;;;;;;;;;;;;;
2020/05/06 02:49:15;;;;;;;15.6;14.1;;;;;;;;;;;;;
2020/05/06 02:51:40;;;;;;;16.2;14.1;;;;;;;;;;;;;
2020/05/06 02:54:05;;;;;;;15.3;13.7;;;;;;;;;;;;;
2020/05/06 02:56:30;;;;;;;16.3;14.4;;;;;;;;;;;;;
2020/05/06 02:58:55;;;;;;;15.8;14.2;;;;;;;;;;;;;
2020/05/06 03:01:20;;;;;;;15.9;14.3;;;;;;;;;;;;;
2020/05/06 03:03:45;;;;;;;16.3;14.6;;;;;;;;;;;;;
2020/05/06 03:06:10;;;;;;;16.9;14.9;;;;;;;;;;;;;
2020/05/06 03:08:36;;;;;;;15.9;14.3;;;;;;;;;;;;;
2020/05/06 03:11:01;;;;;;;16.8;15;;;;;;;;;;;;;
2020/05/06 03:13:26;;;;;;;16.5;14.8;;;;;;;;;;;;;
2020/05/06 03:15:52;;;;;;;16;14.4;;;;;;;;;;;;;
2020/05/06 03:18:17;;;;;;;17.2;14.9;;;;;;;;;;;;;
2020/05/06 03:20:42;;;;;;;16.9;15.1;;;;;;;;;;;;;
2020/05/06 03:23:08;;;;;;;16.8;15.1;;;;;;;;;;;;;
2020/05/06 03:25:33;;;;;;;17.9;16;;;;;;;;;;;;;
2020/05/06 03:27:58;;;;;;;17.4;15.6;;;;;;;;;;;;;
2020/05/06 03:30:23;;;;;;;17.9;16.1;;;;;;;;;;;;;
2020/05/06 03:32:50;;;;;;;17.9;16.1;;;;;;;;;;;;;
2020/05/06 03:35:15;;;;;;;17.4;15.7;;;;;;;;;;;;;
2020/05/06 03:37:41;;;;;;;17.9;16.1;;;;;;;;;;;;;
2020/05/06 03:40:06;;;;;;;18.6;16.7;;;;;;;;;;;;;
2020/05/06 03:42:32;;;;;;;18.1;16.3;;;;;;;;;;;;;
2020/05/06 03:44:57;;;;;;;18.9;16.9;;;;;;;;;;;;;
2020/05/06 03:47:24;;;;;;;19.3;17.4;;;;;;;;;;;;;
2020/05/06 03:49:49;;;;;;;20.4;17.8;;;;;;;;;;;;;
2020/05/06 03:52:15;;;;;;;20.8;18.7;;;;;;;;;;;;;
2020/05/06 03:54:40;;;;;;;22.9;20;;;;;;;;;;;;;
2020/05/06 03:57:05;;;;;;;23;20.6;;;;;;;;;;;;;
2020/05/06 03:59:30;;;;;;;23;20.5;;;;;;;;;;;;;
2020/05/06 04:02:30;;;;;;;23.5;21;;;;;;;7.42;86.98926;940.9672;;;;
2020/05/06 04:04:55;;;;;;;22;19.7;;;;;;;7.53;86.68066;941.0318;;;;
2020/05/06 04:07:20;;;;;;;22.9;20;;;;;;;7.57;86.80469;940.8901;;;;
2020/05/06 04:09:45;;;;;;;22.2;19.8;;;;;;;7.57;86.90332;941.0255;;;;
2020/05/06 04:12:10;;;;;;;22.9;19.6;;;;;;;7.58;86.89551;940.9523;;;;
2020/05/06 04:14:35;;;;;;;22.8;20.3;;;;;;;7.62;87.25586;941.0424;;;;
2020/05/06 04:17:03;;;;;;;21.6;19.3;;;;;;;7.61;87.38867;941.0154;;;;
2020/05/06 04:19:26;;;;;;;22.9;19.8;;;;;;;7.57;87.58496;941.0731;;;;
2020/05/06 04:21:52;;;;;;;25.3;20.6;;;;;;;7.6;87.41113;941.0865;;;;
2020/05/06 04:24:17;;;;;;;24.2;20.1;;;;;;;7.65;87.23926;941.1025;;;;
2020/05/06 04:26:44;;;;;;;22.3;19;;;;;;;7.74;86.74707;941.1847;;;;
2020/05/06 04:29:09;;;;;;;23.6;19.8;;;;;;;7.75;87.07715;941.15;;;;
2020/05/06 04:31:34;;;;;;;22.2;19.8;;;;;;;7.79;86.82422;941.2422;;;;
2020/05/06 04:33:59;;;;;;;22;19.6;;;;;;;7.84;86.83496;941.258;;;;
2020/05/06 04:36:26;;;;;;;20.2;18.2;;;;;;;7.92;87.0332;941.2726;;;;
2020/05/06 04:38:51;;;;;;;19.9;17.8;;;;;;;8.02;86.5293;941.299;;;;
2020/05/06 04:41:17;;;;;;;19.3;17.4;;;;;;;8.05;86.2207;941.322;;;;
2020/05/06 04:43:42;;;;;;;19.3;17.3;;;;;;;8.12;86.07227;941.3472;;;;
2020/05/06 04:46:07;;;;;;;19.9;18;;;;;;;8.19;85.62305;941.2944;;;;
2020/05/06 04:48:32;;;;;;;19.9;17.9;;;;;;;8.19;85.53027;941.395;;;;
2020/05/06 04:50:58;;;;;;;20.7;18.6;;;;;;;8.11;85.5498;941.4303;;;;
2020/05/06 04:53:23;;;;;;;22.2;19.9;;;;;;;8.15;86.25;941.429;;;;
2020/05/06 04:55:48;;;;;;;22;19.7;;;;;;;8.2;86.16992;941.4238;;;;
2020/05/06 04:58:17;;;;;;;21.9;19.6;;;;;;;8.21;86.0791;941.416;;;;
2020/05/06 05:00:42;;;;;;;21.3;19;;;;;;;8.27;85.77344;941.4186;;;;
2020/05/06 05:03:08;;;;;;;21.5;19.2;;;;;;;8.3;85.89258;941.3763;;;;
2020/05/06 05:05:33;;;;;;;22.9;19.4;;;;;;;8.38;85.68164;941.3943;;;;
2020/05/06 05:07:58;;;;;;;21.3;19.2;;;;;;;8.52;85.38086;941.4406;;;;
2020/05/06 05:10:23;;;;;;;22.4;19.9;;;;;;;8.59;84.98633;941.4684;;;;
2020/05/06 05:12:50;;;;;;;22;19.6;;;;;;;8.52;84.9834;941.4994;;;;
2020/05/06 05:15:15;;;;;;;23;20.6;;;;;;;8.62;84.80957;941.5527;;;;
2020/05/06 05:17:40;;;;;;;24.4;21.9;;;;;;;8.63;84.69531;941.5242;;;;
2020/05/06 05:20:05;;;;;;;24.1;21.3;;;;;;;8.57;84.62988;941.5361;;;;
2020/05/06 05:22:30;;;;;;;24.4;21.8;;;;;;;8.57;84.62988;941.5719;;;;
2020/05/06 05:24:56;;;;;;;22.4;20.1;;;;;;;8.58;84.70996;941.6371;;;;
2020/05/06 05:27:20;;;;;;;23.7;21.1;;;;;;;8.6;84.44238;941.6257;;;;
2020/05/06 05:29:46;;;;;;;23.2;20.8;;;;;;;8.64;84.30273;941.6166;;;;
2020/05/06 05:32:11;;;;;;;23.7;21.2;;;;;;;;;;;;;
2020/05/06 05:34:36;;;;;;;23.4;21;;;;;;;;;;;;;
2020/05/06 05:37:01;;;;;;;23.8;21.3;;;;;;;;;;;;;
2020/05/06 05:39:27;;;;;;;23;20.6;;;;;;;;;;;;;
2020/05/06 05:41:52;;;;;;;22.1;19.8;;;;;;;;;;;;;
2020/05/06 05:44:18;;;;;;;22.2;19.9;;;;;;;;;;;;;
2020/05/06 05:46:51;;;;;;;20.8;18.7;;;;;;;;;;;;;
2020/05/06 05:49:08;;;;;;;20.7;18.5;;;;;;;;;;;;;
2020/05/06 05:51:37;;;;;;;20.9;18.8;;;;;;;;;;;;;
2020/05/06 05:54:05;;;;;;;19.5;17.5;;;;;;;;;;;;;
2020/05/06 05:56:25;;;;;;;20.1;18;;;;;;;;;;;;;
2020/05/06 05:58:50;;;;;;;22.2;18.8;;;;;;;;;;;;;
2020/05/06 06:01:19;;;;;;;20;18;;;;;;;;;;;;;
2020/05/06 06:03:40;;;;;;;19.9;17.9;;;;;;;;;;;;;
2020/05/06 06:06:05;;;;;;;19.4;17.4;;;;;;;;;;;;;
2020/05/06 06:08:30;;;;;;;20.5;18.4;;;;;;;;;;;;;
2020/05/06 06:10:55;;;;;;;20.5;18.4;;;;;;;;;;;;;
2020/05/06 06:13:21;;;;;;;19.3;17.3;;;;;;;;;;;;;
2020/05/06 06:15:47;;;;;;;19;16.9;;;;;;;;;;;;;
2020/05/06 06:18:12;;;;;;;20.1;16.6;;;;;;;;;;;;;
2020/05/06 06:20:38;;;;;;;18.6;16.6;;;;;;;;;;;;;
2020/05/06 06:23:03;;;;;;;18.7;16.6;;;;;;;;;;;;;
2020/05/06 06:25:28;;;;;;;19.1;16.2;;;;;;;;;;;;;
2020/05/06 06:27:54;;;;;;;17.8;15.9;;;;;;;;;;;;;
2020/05/06 06:30:19;;;;;;;18.3;15.6;;;;;;;;;;;;;
2020/05/06 06:33:02;;;;;;;17.9;16.1;;;;;;;;;;;;;
2020/05/06 06:35:09;;;;;;;17.2;15.4;;;;;;;;;;;;;
2020/05/06 06:37:34;;;;;;;16.3;14.2;;;;;;;;;;;;;
2020/05/06 06:39:59;;;;;;;18.1;14;;;;;;;;;;;;;
2020/05/06 06:42:25;;;;;;;15.8;13.6;;;;;;;;;;;;;
2020/05/06 06:44:50;;;;;;;14.2;12.8;;;;;;;;;;;;;
2020/05/06 06:47:15;;;;;;;14.2;12.7;;;;;;;;;;;;;
2020/05/06 06:49:40;;;;;;;16.5;12.7;;;;;;;;;;;;;
2020/05/06 06:52:05;;;;;;;14.1;12.6;;;;;;;;;;;;;
2020/05/06 06:54:39;;;;;;;16.1;13.6;;;;;;;;;;;;;
2020/05/06 06:56:55;;;;;;;15.1;13.4;;;;;;;;;;;;;
2020/05/06 06:59:20;;;;;;;14.2;12.7;;;;;;;;;;;;;
2020/05/06 07:01:45;;;;;;;14.8;13.3;;;;;;;;;;;;;
2020/05/06 07:04:11;;;;;;;14.9;13.4;;;;;;;;;;;;;
2020/05/06 07:06:36;;;;;;;15.6;14;;;;;;;;;;;;;
2020/05/06 07:09:02;;;;;;;15.2;13.6;;;;;;;;;;;;;
2020/05/06 07:11:27;;;;;;;15.5;13.9;;;;;;;;;;;;;
2020/05/06 07:13:52;;;;;;;14.1;12.7;;;;;;;;;;;;;
2020/05/06 07:16:17;;;;;;;14.5;12.7;;;;;;;;;;;;;
2020/05/06 07:18:42;;;;;;;14.2;12.7;;;;;;;;;;;;;
2020/05/06 07:21:07;;;;;;;14.3;12.9;;;;;;;;;;;;;
2020/05/06 07:23:33;;;;;;;13.3;12;;;;;;;;;;;;;
2020/05/06 07:25:58;;;;;;;13.3;12;;;;;;;;;;;;;
2020/05/06 07:28:23;;;;;;;14;12.2;;;;;;;;;;;;;
2020/05/06 07:30:48;;;;;;;14.3;12.3;;;;;;;;;;;;;
2020/05/06 07:33:13;;;;;;;13.9;12.4;;;;;;;;;;;;;
2020/05/06 07:35:38;;;;;;;13.8;12.4;;;;;;;;;;;;;
2020/05/06 07:38:03;;;;;;;13.7;12.1;;;;;;;;;;;;;
2020/05/06 07:40:29;;;;;;;12.8;11.5;;;;;;;;;;;;;
2020/05/06 07:42:53;;;;;;;12.8;11.5;;;;;;;;;;;;;
2020/05/06 07:45:19;;;;;;;13.6;12.2;;;;;;;;;;;;;
2020/05/06 07:47:44;;;;;;;13.6;12.2;;;;;;;;;;;;;
2020/05/06 07:50:09;;;;;;;14.2;12.8;;;;;;;;;;;;;
2020/05/06 07:52:34;;;;;;;14.5;13;;;;;;;;;;;;;
2020/05/06 07:55:00;;;;;;;14.3;12.8;;;;;;;;;;;;;
2020/05/06 07:57:24;;;;;;;14.2;12.8;;;;;;;;;;;;;
2020/05/06 07:59:50;;;;;;;13.5;12.1;;;;;;;;;;;;;
2020/05/06 08:02:15;;;;;;;13.1;11.6;;;;;;;;;;;;;
2020/05/06 08:04:41;;;;;;;12.8;11.4;;;;;;;;;;;;;
2020/05/06 08:07:06;;;;;;;13.3;11.7;;;;;;;;;;;;;
2020/05/06 08:09:32;;;;;;;14.2;12.3;;;;;;;;;;;;;
2020/05/06 08:11:58;;;;;;;14.3;12.6;;;;;;;;;;;;;
2020/05/06 08:14:23;;;;;;;14.7;13.2;;;;;;;;;;;;;
2020/05/06 08:16:49;;;;;;;14.1;12.8;;;;;;;;;;;;;
2020/05/06 08:19:14;;;;;;;15.8;13.6;;;;;;;;;;;;;
2020/05/06 08:21:39;;;;;;;15.1;13.5;;;;;;;;;;;;;
2020/05/06 08:24:04;;;;;;;15.2;13.7;;;;;;;;;;;;;
2020/05/06 08:26:29;;;;;;;17.2;15.4;;;;;;;;;;;;;
2020/05/06 08:28:54;;;;;;;16.7;15;;;;;;;;;;;;;
2020/05/06 08:31:19;;;;;;;17.8;15.3;;;;;;;;;;;;;
2020/05/06 08:33:45;;;;;;;18.6;16.6;;;;;;;;;;;;;
2020/05/06 08:36:10;;;;;;;19.3;17.3;;;;;;;;;;;;;
2020/05/06 08:38:35;;;;;;;18.9;17;;;;;;;;;;;;;
2020/05/06 08:41:00;;;;;;;17.6;15.6;;;;;;;;;;;;;
2020/05/06 08:43:31;;;;;;;17.3;15.3;;;;;;;;;;;;;
2020/05/06 08:45:54;;;;;;;16.7;14.9;;;;;;;;;;;;;
2020/05/06 08:48:19;;;;;;;16.8;15;;;;;;;;;;;;;
2020/05/06 08:50:44;;;;;;;17.2;15.4;;;;;;;;;;;;;
2020/05/06 08:53:10;;;;;;;17.5;15.6;;;;;;;;;;;;;
2020/05/06 08:55:34;;;;;;;17.7;15.6;;;;;;;;;;;;;
2020/05/06 08:58:00;;;;;;;18.5;16.6;;;;;;;;;;;;;
2020/05/06 09:00:24;;;;;;;18;16.2;;;;;;;;;;;;;
2020/05/06 09:02:50;;;;;;;17;15.3;;;;;;;;;;;;;
2020/05/06 09:05:15;;;;;;;19.1;16.7;;;;;;;;;;;;;
2020/05/06 09:07:40;;;;;;;16.7;15;;;;;;;;;;;;;
2020/05/06 09:10:05;;;;;;;17.4;15.6;;;;;;;;;;;;;
2020/05/06 09:12:45;;;;;;;16.1;14.4;;;;;;;;;;;;;
2020/05/06 09:16:01;;;;;;;15.4;13.6;;;;;;;;;;;;;
2020/05/06 09:19:55;;;;;;;14.7;13.1;;;;;;;;;;;;;
2020/05/06 09:22:19;;;;;;;14.8;13.2;;;;;;;;;;;;;
2020/05/06 09:24:40;;;;;;;15;13.4;;;;;;;;;;;;;
2020/05/06 09:27:19;;;;;;;15;13.1;;;;;;;;;;;;;
2020/05/06 09:29:26;;;;;;;14.9;13.3;;;;;;;;;;;;;
2020/05/06 09:31:51;;;;;;;16;13.8;;;;;;;;;;;;;
2020/05/06 09:34:16;;;;;;;15.4;13.8;;;;;;;;;;;;;
2020/05/06 09:36:42;;;;;;;15.2;13.3;;;;;;;;;;;;;
2020/05/06 09:39:07;;;;;;;14.2;12.6;;;;;;;;;;;;;
2020/05/06 09:41:32;;;;;;;14.6;13;;;;;;;;;;;;;
2020/05/06 09:43:57;;;;;;;16.2;12.7;;;;;;;;;;;;;
2020/05/06 09:46:22;;;;;;;14.7;12.8;;;;;;;;;;;;;
2020/05/06 09:48:48;;;;;;;15.2;12.8;;;;;;;;;;;;;
2020/05/06 09:51:12;;;;;;;14.4;12.1;;;;;;;;;;;;;
2020/05/06 09:53:37;;;;;;;13.1;11.7;;;;;;;;;;;;;
2020/05/06 09:56:03;;;;;;;13.7;11.5;;;;;;;;;;;;;
2020/05/06 09:58:28;;;;;;;14;12.5;;;;;;;;;;;;;
2020/05/06 10:00:53;;;;;;;14.5;12.2;;;;;;;;;;;;;
2020/05/06 10:03:19;;;;;;;13.3;11.9;;;;;;;;;;;;;
2020/05/06 10:05:44;;;;;;;16.2;11.4;;;;;;;;;;;;;
2020/05/06 10:08:10;;;;;;;12.2;11;;;;;;;;;;;;;
2020/05/06 10:10:35;;;;;;;12.5;11.2;;;;;;;;;;;;;
2020/05/06 10:13:00;;;;;;;13.3;11.1;;;;;;;;;;;;;
2020/05/06 10:15:27;;;;;;;14.5;10.9;;;;;;;;;;;;;
2020/05/06 10:17:52;;;;;;;12.8;11;;;;;;;;;;;;;
2020/05/06 10:20:17;;;;;;;12.2;10.9;;;;;;;;;;;;;
2020/05/06 10:22:42;;;;;;;11.6;10.4;;;;;;;;;;;;;
2020/05/06 10:25:07;;;;;;;12.2;10.9;;;;;;;;;;;;;
2020/05/06 10:27:32;;;;;;;12.6;10.9;;;;;;;;;;;;;
2020/05/06 10:29:58;;;;;;;12.9;11.2;;;;;;;;;;;;;
2020/05/06 10:32:23;;;;;;;12.1;10.8;;;;;;;;;;;;;
2020/05/06 10:34:48;;;;;;;12;10.4;;;;;;;;;;;;;
2020/05/06 10:37:14;;;;;;;11.7;10.5;;;;;;;;;;;;;
2020/05/06 10:39:39;;;;;;;11.5;9.9;;;;;;;;;;;;;
2020/05/06 10:42:04;;;;;;;12.9;10.4;;;;;;;;;;;;;
2020/05/06 10:44:29;;;;;;;10.8;9.7;;;;;;;;;;;;;
2020/05/06 10:46:59;;;;;;;10.5;9.5;;;;;;;;;;;;;
2020/05/06 10:49:24;;;;;;;11.8;10;;;;;;;;;;;;;
2020/05/06 10:51:50;;;;;;;10.4;9.3;;;;;;;;;;;;;
2020/05/06 10:54:19;;;;;;;9.9;8.9;;;;;;;;;;;;;
2020/05/06 10:56:44;;;;;;;10.9;9.4;;;;;;;;;;;;;
2020/05/06 10:59:09;;;;;;;10.3;9.2;;;;;;;;;;;;;
2020/05/06 11:01:34;;;;;;;10.5;9.4;;;;;;;;;;;;;
2020/05/06 11:03:59;;;;;;;12.1;8.7;;;;;;;;;;;;;
2020/05/06 11:06:24;;;;;;;10.8;8.6;;;;;;;;;;;;;
2020/05/06 11:08:49;;;;;;;10.9;8.7;;;;;;;;;;;;;
2020/05/06 11:11:15;;;;;;;9.6;8.1;;;;;;;;;;;;;
2020/05/06 11:13:40;;;;;;;11.4;7.7;;;;;;;;;;;;;
2020/05/06 11:16:05;;;;;;;9.9;8.6;;;;;;;;;;;;;
2020/05/06 11:18:30;;;;;;;10.8;8;;;;;;;;;;;;;
2020/05/06 11:20:55;;;;;;;10.5;8;;;;;;;;;;;;;
2020/05/06 11:23:21;;;;;;;9.4;8.2;;;;;;;;;;;;;
2020/05/06 11:25:45;;;;;;;10.8;8;;;;;;;;;;;;;
2020/05/06 11:28:11;;;;;;;11.1;8.3;;;;;;;;;;;;;
2020/05/06 11:30:36;;;;;;;8.4;7.6;;;;;;;;;;;;;
2020/05/06 11:33:01;;;;;;;8.6;7.7;;;;;;;;;;;;;
2020/05/06 11:35:26;;;;;;;10.7;7.3;;;;;;;;;;;;;
2020/05/06 11:37:51;;;;;;;10.1;7.7;;;;;;;;;;;;;
2020/05/06 11:40:16;;;;;;;11.7;7.6;;;;;;;;;;;;;
2020/05/06 11:42:41;;;;;;;9.1;7.9;;;;;;;;;;;;;
2020/05/06 11:45:06;;;;;;;8;7.2;;;;;;;;;;;;;
2020/05/06 11:47:32;;;;;;;11.4;7.5;;;;;;;;;;;;;
2020/05/06 11:49:57;;;;;;;9.5;7.9;;;;;;;;;;;;;
2020/05/06 11:52:22;;;;;;;8.4;7.5;;;;;;;;;;;;;
2020/05/06 11:54:47;;;;;;;8.1;7.2;;;;;;;;;;;;;
2020/05/06 11:57:12;;;;;;;8.1;7.3;;;;;;;;;;;;;
2020/05/06 11:59:38;;;;;;;8.5;6.9;;;;;;;;;;;;;
2020/05/06 12:02:03;;;;;;;10.7;7.5;;;;;;;;;;;;;
2020/05/06 12:04:28;;;;;;;9.3;6.4;;;;;;;;;;;;;
2020/05/06 12:06:53;;;;;;;10.4;6.6;;;;;;;;;;;;;
2020/05/06 12:09:18;;;;;;;9.9;7.1;;;;;;;;;;;;;
2020/05/06 12:11:44;;;;;;;10;7.1;;;;;;;;;;;;;
2020/05/06 12:14:08;;;;;;;9.2;7.4;;;;;;;;;;;;;
2020/05/06 12:16:33;;;;;;;8.1;6.3;;;;;;;;;;;;;
2020/05/06 12:18:59;;;;;;;7.9;6.4;;;;;;;;;;;;;
2020/05/06 12:21:24;;;;;;;12.1;7.2;;;;;;;;;;;;;
2020/05/06 12:24:03;;;;;;;8.5;6.5;;;;;;;;;;;;;
2020/05/06 12:26:17;;;;;;;9.4;6.4;;;;;;;;;;;;;
2020/05/06 12:28:46;;;;;;;9;6.3;;;;;;;;;;;;;
2020/05/06 12:31:06;;;;;;;9.4;6.5;;;;;;;;;;;;;
2020/05/06 12:33:31;;;;;;;8.4;6.3;;;;;;;;;;;;;
2020/05/06 12:35:56;;;;;;;8.4;5.5;;;;;;;;;;;;;
2020/05/06 12:38:21;;;;;;;7.1;5.5;;;;;;;;;;;;;
2020/05/06 12:40:46;;;;;;;11;5.5;;;;;;;;;;;;;
2020/05/06 12:43:11;;;;;;;7.1;5.2;;;;;;;;;;;;;
2020/05/06 12:48:14;;;;;;;6.2;4.7;;;;;;;;;;;;;
2020/05/06 12:50:32;;;;;;;8.9;4.8;;;;;;;;;;;;;
2020/05/06 12:55:18;;;;;;;8.7;5.2;;;;;;;;;;;;;
2020/05/06 12:57:58;;;;;;;7.6;4.7;;;;;;;;;;;;;
2020/05/06 13:00:08;;;;;;;7.6;4.9;;;;;;;;;;;;;
2020/05/06 13:02:33;;;;;;;7.4;4.6;;;;;;;;;;;;;
2020/05/06 13:04:58;;;;;;;6.6;4.1;;;;;;;;;;;;;
2020/05/06 13:07:23;;;;;;;7.2;4.3;;;;;;;;;;;;;
2020/05/06 13:09:48;;;;;;;5.7;4.2;;;;;;;;;;;;;
2020/05/06 13:12:13;;;;;;;7.9;4.2;;;;;;;;;;;;;
2020/05/06 13:14:39;;;;;;;7.1;4;;;;;;;;;;;;;
2020/05/06 13:17:04;;;;;;;6.9;3.8;;;;;;;;;;;;;
2020/05/06 13:19:30;;;;;;;5.4;3.9;;;;;;;;;;;;;
2020/05/06 13:21:56;;;;;;;7;3.8;;;;;;;;;;;;;
2020/05/06 13:24:21;;;;;;;10.1;4;;;;;;;;;;;;;
2020/05/06 13:26:46;;;;;;;6;3.4;;;;;;;;;;;;;
2020/05/06 13:29:11;;;;;;;5.5;3.3;;;;;;;;;;;;;
2020/05/06 13:31:36;;;;;;;7.1;3.7;;;;;;;;;;;;;
2020/05/06 13:34:03;;;;;;;4.2;3.4;;;;;;;;;;;;;
2020/05/06 13:36:28;;;;;;;6.3;3.6;;;;;;;;;;;;;
2020/05/06 13:38:53;;;;;;;5.9;3.6;;;;;;;;;;;;;
2020/05/06 13:41:18;;;;;;;5.2;3.3;;;;;;;;;;;;;
2020/05/06 13:43:44;;;;;;;8.2;3.4;;;;;;;;;;;;;
2020/05/06 13:46:09;;;;;;;6.9;3.3;;;;;;;;;;;;;
2020/05/06 13:48:35;;;;;;;5.5;3.2;;;;;;;;;;;;;
2020/05/06 13:51:00;;;;;;;5.5;3;;;;;;;;;;;;;
2020/05/06 13:53:25;;;;;;;6.8;3;;;;;;;;;;;;;
2020/05/06 13:55:51;;;;;;;6;3.1;;;;;;;;;;;;;
2020/05/06 13:58:16;;;;;;;5.1;3.1;;;;;;;;;;;;;
2020/05/06 14:00:41;;;;;;;5.5;3.3;;;;;;;;;;;;;
2020/05/06 14:03:06;;;;;;;5.6;3.2;;;;;;;;;;;;;
2020/05/06 14:05:31;;;;;;;4.9;3.2;;;;;;;;;;;;;
2020/05/06 14:07:56;;;;;;;5.1;2.7;;;;;;;;;;;;;
2020/05/06 14:10:21;;;;;;;6;3.2;;;;;;;;;;;;;
2020/05/06 14:12:46;;;;;;;4.8;2.7;;;;;;;;;;;;;
2020/05/06 14:15:12;;;;;;;5.8;3;;;;;;;;;;;;;
2020/05/06 14:17:37;;;;;;;6.7;2.8;;;;;;;;;;;;;
2020/05/06 14:20:02;;;;;;;6;2.6;;;;;;;;;;;;;
2020/05/06 14:22:27;;;;;;;4.8;2.6;;;;;;;;;;;;;
2020/05/06 14:24:53;;;;;;;5.4;2.9;;;;;;;;;;;;;
2020/05/06 14:27:18;;;;;;;5;3.2;;;;;;;;;;;;;
2020/05/06 14:29:44;;;;;;;6.5;3;;;;;;;;;;;;;
2020/05/06 14:32:09;;;;;;;5.4;2.8;;;;;;;;;;;;;
2020/05/06 14:34:35;;;;;;;4.8;3;;;;;;;;;;;;;
2020/05/06 14:37:00;;;;;;;5;2.5;;;;;;;;;;;;;
2020/05/06 14:39:26;;;;;;;5.8;2.6;;;;;;;;;;;;;
2020/05/06 14:41:51;;;;;;;5.8;2.9;;;;;;;;;;;;;
2020/05/06 14:44:17;;;;;;;4.4;2.7;;;;;;;;;;;;;
2020/05/06 14:46:42;;;;;;;5.3;2.8;;;;;;;;;;;;;
2020/05/06 14:49:08;;;;;;;6;2.8;;;;;;;;;;;;;
2020/05/06 14:51:33;;;;;;;4.8;2.7;;;;;;;;;;;;;
2020/05/06 14:53:58;;;;;;;6.4;3;;;;;;;;;;;;;
2020/05/06 14:56:23;;;;;;;4.1;2.7;;;;;;;;;;;;;
2020/05/06 14:58:48;;;;;;;6.2;3.1;;;;;;;;;;;;;
2020/05/06 15:01:13;;;;;;;4.6;2.6;;;;;;;;;;;;;
2020/05/06 15:03:38;;;;;;;3.5;2.5;;;;;;;;;;;;;
2020/05/06 15:06:03;;;;;;;6.1;2.8;;;;;;;;;;;;;
2020/05/06 15:08:28;;;;;;;5.4;2.5;;;;;;;;;;;;;
2020/05/06 15:10:53;;;;;;;4.5;2.8;;;;;;;;;;;;;
2020/05/06 15:13:20;;;;;;;4.4;2.6;;;;;;;;;;;;;
2020/05/06 15:15:45;;;;;;;5.2;2.5;;;;;;;;;;;;;
2020/05/06 15:18:12;;;;;;;10.4;2.8;;;;;;;;;;;;;
2020/05/06 15:20:37;;;;;;;7.8;2.3;;;;;;;;;;;;;
2020/05/06 15:23:02;;;;;;;3.8;2.3;;;;;;;;;;;;;
2020/05/06 15:25:27;;;;;;;5.1;2.5;;;;;;;;;;;;;
2020/05/06 15:27:52;;;;;;;9.2;2.6;;;;;;;;;;;;;
2020/05/06 15:30:17;;;;;;;5.4;2.5;;;;;;;;;;;;;
2020/05/06 15:32:42;;;;;;;5.7;2.4;;;;;;;;;;;;;
2020/05/06 15:35:07;;;;;;;3.9;2.5;;;;;;;;;;;;;
2020/05/06 15:37:32;;;;;;;4.9;2.4;;;;;;;;;;;;;
2020/05/06 15:39:58;;;;;;;3.5;2.2;;;;;;;;;;;;;
2020/05/06 15:42:23;;;;;;;3.9;2.4;;;;;;;;;;;;;
2020/05/06 15:44:48;;;;;;;4.2;2.1;;;;;;;;;;;;;
2020/05/06 15:47:13;;;;;;;5.7;2.5;;;;;;;;;;;;;
2020/05/06 15:49:38;;;;;;;5.1;2.4;;;;;;;;;;;;;
2020/05/06 15:52:04;;;;;;;4.7;2.4;;;;;;;;;;;;;
2020/05/06 15:54:29;;;;;;;4.1;2.3;;;;;;;;;;;;;
2020/05/06 15:56:54;;;;;;;5.4;2.4;;;;;;;;;;;;;
2020/05/06 15:59:19;;;;;;;4.2;2.2;;;;;;;;;;;;;
2020/05/06 16:01:44;;;;;;;4.6;2.3;;;;;;;;;;;;;
2020/05/06 16:04:09;;;;;;;4.4;2.3;;;;;;;;;;;;;
2020/05/06 16:06:34;;;;;;;3.5;2.1;;;;;;;;;;;;;
2020/05/06 16:09:00;;;;;;;5.7;2.2;;;;;;;;;;;;;
2020/05/06 16:11:28;;;;;;;4.3;2.2;;;;;;;;;;;;;
2020/05/06 16:13:51;;;;;;;6.4;2.2;;;;;;;;;;;;;
2020/05/06 16:16:16;;;;;;;6.4;2.1;;;;;;;;;;;;;
2020/05/06 16:18:41;;;;;;;5.6;2.3;;;;;;;;;;;;;
2020/05/06 16:21:06;;;;;;;5.2;2.6;;;;;;;;;;;;;
2020/05/06 16:23:31;;;;;;;5.5;2.4;;;;;;;;;;;;;
2020/05/06 16:25:56;;;;;;;5.2;2.2;;;;;;;;;;;;;
2020/05/06 16:28:22;;;;;;;6.7;2.1;;;;;;;;;;;;;
2020/05/06 16:30:47;;;;;;;5.1;2.1;;;;;;;;;;;;;
2020/05/06 16:35:41;;;;;;;5;2;;;;;;;;;;;;;
2020/05/06 16:38:03;;;;;;;4.6;2.1;;;;;;;;;;;;;
2020/05/06 16:40:28;;;;;;;3;1.8;;;;;;;;;;;;;
2020/05/06 16:42:53;;;;;;;4.3;2.1;;;;;;;;;;;;;
2020/05/06 16:45:19;;;;;;;3.3;2;;;;;;;;;;;;;
2020/05/06 16:47:44;;;;;;;5.2;2.1;;;;;;;;;;;;;
2020/05/06 16:50:09;;;;;;;5.5;1.9;;;;;;;;;;;;;
2020/05/06 16:52:34;;;;;;;4.9;1.9;;;;;;;;;;;;;
2020/05/06 16:54:59;;;;;;;4.3;2;;;;;;;;;;;;;
2020/05/06 16:57:24;;;;;;;4.3;2.1;;;;;;;;;;;;;
2020/05/06 16:59:49;;;;;;;4.2;2.2;;;;;;;;;;;;;
2020/05/06 17:02:14;;;;;;;4.6;1.8;;;;;;;;;;;;;
2020/05/06 17:04:39;;;;;;;4.1;1.6;;;;;;;;;;;;;
2020/05/06 17:07:07;;;;;;;6.6;2;;;;;;;;;;;;;
2020/05/06 17:09:30;;;;;;;5.3;2;;;;;;;;;;;;;
2020/05/06 17:14:20;;;;;;;7.1;2;;;;;;;;;;;;;
2020/05/06 17:16:46;;;;;;;4.5;1.9;;;;;;;;;;;;;
2020/05/06 17:19:11;;;;;;;5.7;1.9;;;;;;;;;;;;;
2020/05/06 17:21:36;;;;;;;7.7;2.1;;;;;;;;;;;;;
2020/05/06 17:24:01;;;;;;;4.6;2.1;;;;;;;;;;;;;
2020/05/06 17:28:51;;;;;;;3.4;1.8;;;;;;;;;;;;;
2020/05/06 17:31:22;;;;;;;4.2;2.1;;;;;;;;;;;;;
2020/05/06 17:36:07;;;;;;;3.8;1.8;;;;;;;;;;;;;
2020/05/06 17:38:32;;;;;;;4;1.8;;;;;;;;;;;;;
2020/05/06 17:40:57;;;;;;;3.9;1.9;;;;;;;;;;;;;
2020/05/06 17:43:23;;;;;;;3.7;1.7;;;;;;;;;;;;;
2020/05/06 17:45:47;;;;;;;3.4;1.7;;;;;;;;;;;;;
2020/05/06 17:48:13;;;;;;;5.1;2;;;;;;;;;;;;;
2020/05/06 17:50:38;;;;;;;3.6;1.7;;;;;;;;;;;;;
2020/05/06 17:53:03;;;;;;;4.7;1.9;;;;;;;;;;;;;
2020/05/06 17:55:29;;;;;;;3.5;1.8;;;;;;;;;;;;;
2020/05/06 17:57:54;;;;;;;3.1;1.7;;;;;;;;;;;;;
2020/05/06 18:00:22;;;;;;;3.9;1.8;;;;;;;;;;;;;
2020/05/06 18:02:47;;;;;;;5.5;2;;;;;;;;;;;;;
2020/05/06 18:05:12;;;;;;;4.2;1.9;;;;;;;;;;;;;
2020/05/06 18:07:37;;;;;;;4.8;2.2;;;;;;;;;;;;;
2020/05/06 18:10:02;;;;;;;6.6;2.4;;;;;;;;;;;;;
2020/05/06 18:12:27;;;;;;;4.2;2.4;;;;;;;;;;;;;
2020/05/06 18:14:52;;;;;;;5.5;2.7;;;;;;;;;;;;;
2020/05/06 18:17:18;;;;;;;5.3;2.8;;;;;;;;;;;;;
2020/05/06 18:19:43;;;;;;;7.3;3.1;;;;;;;;;;;;;
2020/05/06 18:22:08;;;;;;;5.2;3.1;;;;;;;;;;;;;
2020/05/06 18:24:33;;;;;;;6.5;3.3;;;;;;;;;;;;;
2020/05/06 18:26:58;;;;;;;7.7;5.4;;;;;;;;;;;;;
2020/05/06 18:29:23;;;;;;;8.1;4.3;;;;;;;;;;;;;
2020/05/06 18:31:48;;;;;;;8.5;4.4;;;;;;;;;;;;;
2020/05/06 18:34:13;;;;;;;10.3;4.7;;;;;;;;;;;;;
2020/05/06 18:36:38;;;;;;;8.7;4.7;;;;;;;;;;;;;
2020/05/06 18:39:04;;;;;;;8.8;5.5;;;;;;;;;;;;;
2020/05/06 18:41:28;;;;;;;9.7;6.8;;;;;;;;;;;;;
2020/05/06 18:43:54;;;;;;;10.2;6.2;;;;;;;;;;;;;
2020/05/06 18:46:19;;;;;;;5.5;3.8;;;;;;;;;;;;;
2020/05/06 18:48:44;;;;;;;6.1;3.3;;;;;;;;;;;;;
2020/05/06 18:51:09;;;;;;;6.3;3;;;;;;;;;;;;;
2020/05/06 18:53:35;;;;;;;6.7;2.7;;;;;;;;;;;;;
2020/05/06 18:56:00;;;;;;;5.3;2.4;;;;;;;;;;;;;
2020/05/06 18:58:25;;;;;;;4.5;2.5;;;;;;;;;;;;;
2020/05/06 19:00:50;;;;;;;6;2.7;;;;;;;;;;;;;
2020/05/06 19:03:15;;;;;;;5.2;2.6;;;;;;;;;;;;;
2020/05/06 19:05:40;;;;;;;4.8;2.8;;;;;;;;;;;;;
2020/05/06 19:08:05;;;;;;;4.2;2.4;;;;;;;;;;;;;
2020/05/06 19:10:30;;;;;;;5.9;2.6;;;;;;;;;;;;;
2020/05/06 19:12:55;;;;;;;4.6;2.6;;;;;;;;;;;;;
2020/05/06 19:15:21;;;;;;;7.2;2.7;;;;;;;;;;;;;
2020/05/06 19:17:46;;;;;;;4.8;2.9;;;;;;;;;;;;;
2020/05/06 19:20:11;;;;;;;6.5;3;;;;;;;;;;;;;
2020/05/06 19:22:36;;;;;;;6.8;3.2;;;;;;;;;;;;;
2020/05/06 19:25:02;;;;;;;7.4;3.3;;;;;;;;;;;;;
2020/05/06 19:27:26;;;;;;;6.7;3.7;;;;;;;;;;;;;
2020/05/06 19:29:52;;;;;;;4.6;3.4;;;;;;;;;;;;;
2020/05/06 19:32:17;;;;;;;6.1;3.5;;;;;;;;;;;;;
2020/05/06 19:34:42;;;;;;;6.6;3.4;;;;;;;;;;;;;
2020/05/06 19:37:08;;;;;;;6.5;3.7;;;;;;;;;;;;;
2020/05/06 19:39:33;;;;;;;5.2;3.4;;;;;;;;;;;;;
2020/05/06 19:41:58;;;;;;;4.6;3.5;;;;;;;;;;;;;
2020/05/06 19:44:24;;;;;;;5.9;3.6;;;;;;;;;;;;;
2020/05/06 19:46:49;;;;;;;7.3;3.9;;;;;;;;;;;;;
2020/05/06 19:49:14;;;;;;;6.9;3.6;;;;;;;;;;;;;
2020/05/06 19:51:39;;;;;;;7.8;3.3;;;;;;;;;;;;;
2020/05/06 19:54:04;;;;;;;5.8;3.1;;;;;;;;;;;;;
2020/05/06 19:56:29;;;;;;;7.4;3.1;;;;;;;;;;;;;